createdAt,value
2023-02-21T00:02:07.852Z,3.10
2023-02-21T00:04:54.333Z,3.50
2023-02-21T00:07:40.872Z,3.90
2023-02-21T00:10:28.114Z,3.00
2023-02-21T00:13:14.491Z,3.90
2023-02-21T00:16:00.561Z,3.90
2023-02-21T00:18:46.862Z,4.00
2023-02-21T00:21:33.141Z,3.30
2023-02-21T00:24:19.366Z,3.40
2023-02-21T00:27:05.972Z,4.00
2023-02-21T00:29:52.243Z,3.80
2023-02-21T00:32:38.837Z,3.50
2023-02-21T00:35:25.312Z,4.80
2023-02-21T00:38:11.833Z,4.40
2023-02-21T00:40:58.738Z,3.60
2023-02-21T00:43:48.537Z,4.00
2023-02-21T00:46:34.861Z,5.00
2023-02-21T00:49:21.717Z,4.80
2023-02-21T00:52:08.347Z,4.50
2023-02-21T00:54:55.057Z,4.20
2023-02-21T00:57:41.544Z,6.00
2023-02-21T01:00:33.119Z,5.20
2023-02-21T01:03:19.591Z,5.40
2023-02-21T01:06:06.056Z,5.40
2023-02-21T01:08:52.684Z,5.10
2023-02-21T01:11:40.399Z,5.40
2023-02-21T01:14:28.338Z,4.70
2023-02-21T01:17:15.056Z,3.70
2023-02-21T01:20:01.114Z,4.20
2023-02-21T01:22:47.748Z,4.20
2023-02-21T01:25:34.626Z,4.60
2023-02-21T01:28:20.762Z,4.20
2023-02-21T01:31:06.932Z,4.80
2023-02-21T01:33:54.642Z,4.40
2023-02-21T01:36:40.846Z,4.50
2023-02-21T01:39:27.215Z,3.80
2023-02-21T01:42:13.650Z,4.50
2023-02-21T01:45:01.178Z,4.50
2023-02-21T01:47:47.357Z,3.90
2023-02-21T01:50:42.137Z,3.70
2023-02-21T01:53:42.102Z,3.80
2023-02-21T01:56:28.635Z,3.60
2023-02-21T01:59:16.430Z,3.90
2023-02-21T02:02:13.383Z,3.50
2023-02-21T02:05:00.411Z,3.30
2023-02-21T02:07:46.423Z,3.90
2023-02-21T02:10:32.830Z,3.60
2023-02-21T02:13:09.258Z,3.10
2023-02-21T02:15:55.430Z,3.10
2023-02-21T02:18:23.248Z,3.20
2023-02-21T02:20:53.753Z,3.50
2023-02-21T02:23:39.936Z,3.50
2023-02-21T02:26:07.795Z,3.10
2023-02-21T02:28:50.734Z,2.90
2023-02-21T02:31:27.576Z,3.30
2023-02-21T02:34:06.299Z,3.60
2023-02-21T02:36:40.514Z,3.20
2023-02-21T02:39:08.266Z,3.50
2023-02-21T02:41:54.599Z,2.70
2023-02-21T02:44:29.802Z,3.30
2023-02-21T02:47:00.813Z,2.90
2023-02-21T02:49:29.940Z,2.30
2023-02-21T02:52:03.930Z,2.50
2023-02-21T02:54:31.773Z,2.60
2023-02-21T02:57:00.292Z,2.50
2023-02-21T02:59:29.972Z,2.70
2023-02-21T03:01:57.805Z,2.40
2023-02-21T03:04:44.065Z,3.20
2023-02-21T03:07:24.579Z,2.30
2023-02-21T03:10:11.253Z,2.50
2023-02-21T03:12:45.335Z,1.60
2023-02-21T03:15:17.257Z,2.00
2023-02-21T03:17:57.552Z,1.60
2023-02-21T03:20:26.204Z,1.10
2023-02-21T03:22:54.809Z,1.20
2023-02-21T03:25:23.715Z,1.30
2023-02-21T03:27:53.082Z,1.40
2023-02-21T03:30:21.165Z,1.30
2023-02-21T03:32:51.589Z,1.30
2023-02-21T03:35:20.318Z,1.00
2023-02-21T03:37:52.843Z,1.00
2023-02-21T03:40:23.919Z,1.10
2023-02-21T03:42:52.627Z,1.30
2023-02-21T03:45:20.562Z,1.20
2023-02-21T03:47:48.482Z,1.50
2023-02-21T03:50:16.372Z,2.60
2023-02-21T03:52:44.149Z,1.00
2023-02-21T03:55:11.941Z,1.10
2023-02-21T03:57:39.749Z,0.70
2023-02-21T04:00:07.940Z,1.20
2023-02-21T04:02:35.743Z,1.00
2023-02-21T04:05:03.696Z,0.80
2023-02-21T04:07:31.406Z,1.10
2023-02-21T04:09:59.153Z,0.90
2023-02-21T04:12:26.983Z,0.90
2023-02-21T04:14:56.639Z,0.90
2023-02-21T04:17:24.976Z,0.90
2023-02-21T04:19:52.986Z,0.90
2023-02-21T04:22:20.729Z,2.90
2023-02-21T04:24:48.676Z,4.00
2023-02-21T04:27:16.562Z,2.10
2023-02-21T04:29:44.413Z,1.40
2023-02-21T04:32:12.364Z,1.00
2023-02-21T04:34:40.175Z,1.00
2023-02-21T04:37:07.963Z,0.80
2023-02-21T04:39:35.691Z,0.80
2023-02-21T04:42:03.495Z,0.80
2023-02-21T04:44:31.208Z,0.90
2023-02-21T04:46:59.057Z,1.30
2023-02-21T04:49:27.680Z,1.40
2023-02-21T04:51:55.482Z,1.30
2023-02-21T04:54:23.313Z,1.70
2023-02-21T04:56:51.246Z,1.50
2023-02-21T04:59:19.158Z,2.10
2023-02-21T05:01:46.915Z,1.20
2023-02-21T05:04:14.730Z,1.60
2023-02-21T05:06:42.583Z,2.20
2023-02-21T05:09:10.403Z,2.30
2023-02-21T05:11:38.209Z,1.20
2023-02-21T05:14:05.983Z,1.20
2023-02-21T05:16:33.893Z,0.60
2023-02-21T05:19:02.881Z,1.10
2023-02-21T05:21:34.078Z,1.40
2023-02-21T05:24:02.300Z,1.40
2023-02-21T05:26:33.644Z,2.10
2023-02-21T05:29:01.562Z,1.20
2023-02-21T05:31:29.484Z,1.00
2023-02-21T05:33:57.721Z,1.10
2023-02-21T05:36:25.978Z,0.60
2023-02-21T05:38:55.610Z,0.70
2023-02-21T05:41:23.883Z,0.80
2023-02-21T05:43:52.154Z,0.90
2023-02-21T05:46:23.497Z,0.50
2023-02-21T05:48:51.914Z,0.50
2023-02-21T05:51:20.422Z,0.50
2023-02-21T05:53:48.657Z,0.50
2023-02-21T05:56:17.329Z,0.50
2023-02-21T05:58:45.204Z,0.60
2023-02-21T06:01:13.604Z,0.60
2023-02-21T06:03:41.892Z,0.70
2023-02-21T06:06:10.086Z,0.60
2023-02-21T06:08:48.056Z,0.80
2023-02-21T06:11:16.638Z,0.60
2023-02-21T06:13:44.577Z,0.50
2023-02-21T06:16:12.472Z,0.70
2023-02-21T06:18:40.306Z,0.60
2023-02-21T06:21:08.238Z,0.70
2023-02-21T06:23:36.328Z,0.80
2023-02-21T06:26:04.218Z,0.90
2023-02-21T06:28:32.229Z,0.80
2023-02-21T06:31:00.077Z,0.70
2023-02-21T06:33:27.855Z,0.70
2023-02-21T06:35:55.737Z,0.90
2023-02-21T06:38:23.539Z,0.80
2023-02-21T06:40:51.700Z,1.00
2023-02-21T06:43:19.585Z,0.80
2023-02-21T06:45:47.437Z,0.90
2023-02-21T06:48:16.174Z,1.50
2023-02-21T06:50:44.043Z,1.30
2023-02-21T06:53:11.897Z,1.10
2023-02-21T06:55:39.909Z,0.90
2023-02-21T06:58:07.874Z,1.10
2023-02-21T07:00:35.781Z,0.90
2023-02-21T07:03:03.635Z,1.40
2023-02-21T07:05:34.813Z,1.10
2023-02-21T07:08:02.695Z,1.40
2023-02-21T07:10:31.014Z,1.20
2023-02-21T07:12:58.874Z,1.50
2023-02-21T07:15:27.153Z,1.10
2023-02-21T07:17:54.930Z,2.00
2023-02-21T07:20:22.829Z,1.10
2023-02-21T07:22:50.804Z,1.90
2023-02-21T07:25:19.743Z,1.50
2023-02-21T07:27:48.188Z,1.80
2023-02-21T07:30:16.538Z,1.40
2023-02-21T07:35:12.601Z,2.40
2023-02-21T07:37:40.407Z,1.60
2023-02-21T07:40:08.346Z,1.40
2023-02-21T07:42:36.153Z,1.70
2023-02-21T07:45:04.151Z,1.10
2023-02-21T07:47:31.988Z,1.70
2023-02-21T07:49:59.791Z,1.50
2023-02-21T07:52:27.836Z,1.80
2023-02-21T07:54:55.654Z,2.00
2023-02-21T07:57:23.488Z,1.40
2023-02-21T07:59:51.443Z,1.50
2023-02-21T08:02:19.212Z,1.40
2023-02-21T08:04:50.329Z,2.00
2023-02-21T08:07:18.294Z,1.90
2023-02-21T08:09:47.003Z,1.70
2023-02-21T08:12:14.854Z,1.60
2023-02-21T08:14:42.601Z,1.10
2023-02-21T08:17:10.439Z,1.50
2023-02-21T08:19:38.348Z,1.30
2023-02-21T08:22:06.239Z,1.30
2023-02-21T08:24:33.977Z,1.20
2023-02-21T08:27:01.806Z,1.40
2023-02-21T08:29:29.679Z,2.00
2023-02-21T08:31:57.487Z,1.30
2023-02-21T08:34:25.636Z,1.70
2023-02-21T08:36:53.410Z,1.40
2023-02-21T08:39:21.284Z,1.80
2023-02-21T08:41:50.387Z,2.10
2023-02-21T08:44:18.674Z,1.80
2023-02-21T08:46:48.376Z,2.30
2023-02-21T08:49:17.556Z,1.70
2023-02-21T08:51:45.309Z,1.50
2023-02-21T08:54:13.661Z,2.50
2023-02-21T08:56:41.454Z,1.80
2023-02-21T08:59:09.567Z,3.10
2023-02-21T09:01:37.398Z,1.80
2023-02-21T09:04:05.367Z,1.90
2023-02-21T09:06:33.367Z,1.90
2023-02-21T09:09:01.100Z,2.30
2023-02-21T09:11:28.996Z,1.40
2023-02-21T09:13:56.877Z,1.90
2023-02-21T09:16:24.680Z,2.30
2023-02-21T09:18:53.804Z,2.30
2023-02-21T09:21:21.597Z,2.30
2023-02-21T09:23:52.229Z,2.30
2023-02-21T09:26:20.110Z,2.10
2023-02-21T09:28:47.903Z,2.40
2023-02-21T09:31:15.999Z,2.10
2023-02-21T09:33:44.416Z,2.40
2023-02-21T09:36:12.460Z,2.00
2023-02-21T09:38:42.021Z,2.30
2023-02-21T09:41:12.457Z,1.70
2023-02-21T09:43:45.736Z,1.90
2023-02-21T09:46:16.562Z,2.40
2023-02-21T09:48:45.039Z,2.10
2023-02-21T09:51:14.344Z,2.60
2023-02-21T09:53:46.609Z,2.20
2023-02-21T09:56:31.870Z,2.30
2023-02-21T09:59:00.010Z,2.20
2023-02-21T10:01:40.077Z,3.60
2023-02-21T10:04:08.003Z,2.90
2023-02-21T10:06:43.310Z,2.60
2023-02-21T10:09:37.111Z,2.00
2023-02-21T10:12:05.032Z,2.50
2023-02-21T10:15:01.604Z,2.20
2023-02-21T10:17:29.503Z,2.10
2023-02-21T10:23:29.978Z,2.50
2023-02-21T10:26:07.423Z,2.90
2023-02-21T10:28:35.785Z,2.20
2023-02-21T10:31:08.082Z,2.00
2023-02-21T10:33:37.568Z,2.40
2023-02-21T10:36:12.645Z,2.30
2023-02-21T10:38:42.011Z,2.50
2023-02-21T10:41:10.454Z,2.40
2023-02-21T10:43:48.264Z,3.10
2023-02-21T10:46:19.209Z,2.10
2023-02-21T10:48:48.264Z,2.00
2023-02-21T10:51:18.466Z,2.50
2023-02-21T10:53:47.421Z,2.50
2023-02-21T10:56:15.565Z,2.10
2023-02-21T10:58:48.043Z,2.30
2023-02-21T11:01:16.353Z,2.60
2023-02-21T11:03:47.223Z,2.20
2023-02-21T11:06:23.889Z,2.50
2023-02-21T11:08:51.715Z,2.00
2023-02-21T11:11:55.031Z,3.20
2023-02-21T11:14:24.724Z,2.10
2023-02-21T11:17:13.134Z,2.70
2023-02-21T11:19:47.264Z,2.30
2023-02-21T11:22:16.298Z,2.50
2023-02-21T11:24:49.451Z,2.40
2023-02-21T11:27:17.418Z,2.60
2023-02-21T11:29:47.567Z,2.50
2023-02-21T11:32:29.682Z,2.20
2023-02-21T11:35:02.023Z,2.70
2023-02-21T11:37:29.926Z,2.40
2023-02-21T11:39:59.052Z,2.50
2023-02-21T11:42:29.030Z,2.50
2023-02-21T11:45:15.759Z,2.00
2023-02-21T11:47:50.935Z,2.40
2023-02-21T11:50:21.441Z,3.30
2023-02-21T11:52:52.454Z,2.80
2023-02-21T11:55:21.993Z,3.60
2023-02-21T11:58:01.856Z,3.00
2023-02-21T12:00:40.021Z,2.40
2023-02-21T12:03:26.688Z,2.10
2023-02-21T12:05:57.194Z,2.70
2023-02-21T12:08:27.808Z,2.50
2023-02-21T12:11:01.783Z,2.20
2023-02-21T12:13:49.931Z,3.00
2023-02-21T12:16:36.515Z,2.30
2023-02-21T12:19:24.574Z,2.30
2023-02-21T12:21:52.439Z,3.20
2023-02-21T12:24:29.464Z,2.30
2023-02-21T12:27:00.414Z,1.90
2023-02-21T12:29:43.569Z,2.40
2023-02-21T12:32:22.243Z,2.00
2023-02-21T12:35:08.786Z,2.40
2023-02-21T12:37:36.558Z,2.80
2023-02-21T12:40:05.099Z,2.40
2023-02-21T12:42:50.006Z,2.40
2023-02-21T12:45:32.322Z,2.60
2023-02-21T12:48:15.088Z,2.00
2023-02-21T12:50:45.462Z,2.50
2023-02-21T12:53:19.234Z,2.40
2023-02-21T12:55:48.894Z,2.50
2023-02-21T12:58:16.733Z,2.20
2023-02-21T13:00:49.989Z,2.50
2023-02-21T13:03:36.767Z,2.90
2023-02-21T13:06:07.220Z,3.50
2023-02-21T13:08:40.243Z,2.80
2023-02-21T13:11:20.467Z,2.50
2023-02-21T13:13:48.144Z,2.50
2023-02-21T13:16:18.513Z,3.20
2023-02-21T13:18:48.853Z,2.70
2023-02-21T13:21:33.983Z,3.50
2023-02-21T13:24:18.406Z,2.80
2023-02-21T13:27:04.579Z,2.90
2023-02-21T13:29:33.395Z,3.00
2023-02-21T13:32:20.114Z,2.50
2023-02-21T13:34:48.235Z,2.90
2023-02-21T13:37:18.265Z,4.40
2023-02-21T13:39:53.745Z,3.00
2023-02-21T13:42:24.247Z,4.40
2023-02-21T13:44:55.453Z,3.10
2023-02-21T13:47:23.518Z,3.50
2023-02-21T13:49:55.136Z,3.00
2023-02-21T13:52:35.744Z,3.20
2023-02-21T13:55:15.881Z,3.50
2023-02-21T13:57:49.167Z,3.20
2023-02-21T14:00:25.949Z,3.80
2023-02-21T14:03:19.547Z,4.00
2023-02-21T14:05:50.469Z,3.40
2023-02-21T14:08:38.162Z,3.00
2023-02-21T14:11:06.223Z,4.30
2023-02-21T14:13:49.153Z,3.60
2023-02-21T14:16:19.183Z,3.30
2023-02-21T14:18:51.271Z,3.20
2023-02-21T14:21:24.750Z,3.60
2023-02-21T14:23:56.821Z,3.30
2023-02-21T14:26:42.461Z,2.60
2023-02-21T14:29:13.091Z,3.40
2023-02-21T14:31:52.118Z,3.00
2023-02-21T14:34:26.642Z,3.10
2023-02-21T14:36:57.235Z,3.10
2023-02-21T14:39:30.846Z,2.90
2023-02-21T14:42:17.688Z,3.30
2023-02-21T14:44:45.367Z,3.80
2023-02-21T14:47:35.314Z,3.30
2023-02-21T14:50:03.171Z,3.60
2023-02-21T14:52:49.462Z,3.10
2023-02-21T14:55:36.248Z,3.10
2023-02-21T14:58:06.808Z,3.10
2023-02-21T15:00:37.539Z,3.50
2023-02-21T15:03:10.221Z,2.80
2023-02-21T15:05:42.741Z,4.30
2023-02-21T15:08:17.162Z,3.30
2023-02-21T15:10:46.409Z,3.20
2023-02-21T15:13:23.672Z,3.70
2023-02-21T15:16:12.313Z,3.10
2023-02-21T15:18:41.709Z,4.10
2023-02-21T15:21:14.764Z,3.90
2023-02-21T15:23:43.799Z,4.10
2023-02-21T15:26:18.340Z,3.90
2023-02-21T15:28:46.561Z,3.90
2023-02-21T15:31:14.832Z,4.90
2023-02-21T15:33:43.363Z,3.80
2023-02-21T15:36:17.216Z,3.50
2023-02-21T15:38:53.750Z,4.40
2023-02-21T15:41:29.655Z,3.50
2023-02-21T15:44:07.396Z,3.60
2023-02-21T15:46:50.488Z,4.00
2023-02-21T15:49:22.880Z,3.40
2023-02-21T15:51:51.534Z,4.00
2023-02-21T15:54:33.333Z,4.20
2023-02-21T15:57:02.759Z,3.40
2023-02-21T15:59:31.788Z,4.00
2023-02-21T16:02:11.680Z,4.00
2023-02-21T16:04:41.002Z,4.40
2023-02-21T16:07:16.125Z,3.50
2023-02-21T16:09:46.874Z,4.70
2023-02-21T16:12:14.741Z,3.90
2023-02-21T16:14:42.673Z,4.20
2023-02-21T16:17:13.343Z,3.90
2023-02-21T16:19:42.603Z,4.10
2023-02-21T16:22:21.485Z,3.50
2023-02-21T16:24:49.679Z,3.50
2023-02-21T16:27:18.432Z,3.80
2023-02-21T16:29:46.280Z,4.20
2023-02-21T16:32:21.060Z,4.20
2023-02-21T16:34:50.844Z,4.60
2023-02-21T16:37:18.738Z,3.30
2023-02-21T16:39:46.788Z,3.80
2023-02-21T16:42:15.193Z,3.60
2023-02-21T16:44:43.305Z,5.30
2023-02-21T16:47:17.606Z,4.90
2023-02-21T16:49:45.536Z,4.10
2023-02-21T16:52:17.700Z,4.50
2023-02-21T16:54:45.539Z,5.40
2023-02-21T16:57:13.325Z,4.60
2023-02-21T16:59:41.498Z,4.40
2023-02-21T17:02:13.278Z,4.50
2023-02-21T17:04:41.374Z,4.00
2023-02-21T17:07:11.099Z,4.20
2023-02-21T17:09:39.379Z,5.00
2023-02-21T17:12:07.811Z,5.00
2023-02-21T17:14:36.348Z,5.90
2023-02-21T17:17:04.680Z,5.20
2023-02-21T17:19:32.840Z,5.70
2023-02-21T17:22:00.791Z,5.80
2023-02-21T17:24:28.972Z,5.20
2023-02-21T17:26:57.029Z,4.50
2023-02-21T17:29:25.760Z,4.60
2023-02-21T17:31:54.687Z,4.60
2023-02-21T17:34:22.650Z,5.70
2023-02-21T17:36:51.777Z,4.80
2023-02-21T17:39:20.995Z,4.20
2023-02-21T17:41:49.807Z,4.20
2023-02-21T17:44:20.797Z,5.00
2023-02-21T17:46:52.804Z,4.70
2023-02-21T17:49:22.801Z,6.20
2023-02-21T17:51:51.261Z,4.80
2023-02-21T17:54:20.933Z,5.10
2023-02-21T17:56:49.268Z,4.80
2023-02-21T17:59:17.562Z,4.90
2023-02-21T18:01:46.283Z,4.70
2023-02-21T18:04:14.991Z,5.10
2023-02-21T18:06:43.244Z,4.80
2023-02-21T18:09:11.363Z,5.10
2023-02-21T18:11:39.285Z,5.70
2023-02-21T18:14:07.251Z,4.60
2023-02-21T18:16:35.281Z,4.40
2023-02-21T18:19:03.529Z,4.80
2023-02-21T18:21:31.487Z,5.50
2023-02-21T18:23:59.587Z,5.40
2023-02-21T18:26:27.864Z,4.50
2023-02-21T18:28:56.242Z,5.60
2023-02-21T18:31:24.388Z,4.90
2023-02-21T18:33:52.797Z,5.90
2023-02-21T18:36:21.060Z,5.30
2023-02-21T18:38:49.769Z,4.90
2023-02-21T18:41:20.834Z,4.90
2023-02-21T18:43:49.780Z,4.60
2023-02-21T18:46:19.421Z,4.40
2023-02-21T18:48:48.501Z,5.80
2023-02-21T18:51:18.908Z,7.10
2023-02-21T18:53:48.332Z,4.10
2023-02-21T18:56:18.913Z,4.20
2023-02-21T18:58:47.454Z,3.80
2023-02-21T19:01:17.034Z,5.10
2023-02-21T19:03:45.207Z,4.20
2023-02-21T19:06:16.393Z,4.90
2023-02-21T19:08:46.680Z,5.20
2023-02-21T19:11:16.062Z,4.90
2023-02-21T19:13:49.856Z,4.20
2023-02-21T19:16:19.645Z,5.20
2023-02-21T19:18:48.154Z,5.60
2023-02-21T19:21:20.502Z,5.20
2023-02-21T19:23:48.505Z,4.70
2023-02-21T19:26:16.665Z,5.30
2023-02-21T19:28:44.826Z,5.00
2023-02-21T19:31:16.601Z,5.80
2023-02-21T19:33:44.942Z,7.00
2023-02-21T19:36:12.794Z,5.40
2023-02-21T19:38:40.722Z,5.80
2023-02-21T19:41:08.828Z,5.80
2023-02-21T19:43:36.760Z,5.50
2023-02-21T19:46:04.840Z,5.40
2023-02-21T19:48:32.718Z,5.10
2023-02-21T19:51:00.625Z,5.80
2023-02-21T19:53:28.549Z,5.50
2023-02-21T19:55:56.404Z,7.60
2023-02-21T19:58:27.083Z,6.00
2023-02-21T20:00:54.849Z,7.10
2023-02-21T20:03:22.820Z,6.90
2023-02-21T20:05:50.968Z,5.90
2023-02-21T20:08:19.180Z,6.00
2023-02-21T20:10:46.959Z,7.00
2023-02-21T20:13:14.744Z,7.70
2023-02-21T20:15:42.697Z,7.00
2023-02-21T20:18:10.591Z,7.00
2023-02-21T20:20:38.461Z,7.70
2023-02-21T20:23:08.297Z,7.10
2023-02-21T20:25:36.888Z,7.00
2023-02-21T20:28:07.220Z,6.40
2023-02-21T20:30:35.495Z,7.20
2023-02-21T20:33:03.422Z,9.90
2023-02-21T20:35:31.518Z,7.00
2023-02-21T20:38:05.350Z,6.50
2023-02-21T20:40:34.659Z,7.20
2023-02-21T20:43:02.782Z,6.00
2023-02-21T20:45:30.581Z,6.50
2023-02-21T20:47:58.731Z,5.60
2023-02-21T20:50:26.898Z,7.00
2023-02-21T20:52:54.838Z,7.30
2023-02-21T20:55:22.910Z,6.20
2023-02-21T20:57:50.924Z,6.80
2023-02-21T21:00:23.586Z,6.40
2023-02-21T21:02:51.917Z,7.60
2023-02-21T21:05:21.253Z,6.40
2023-02-21T21:07:49.717Z,6.10
2023-02-21T21:10:19.305Z,6.00
2023-02-21T21:12:49.708Z,7.40
2023-02-21T21:15:19.429Z,6.90
2023-02-21T21:17:48.405Z,6.90
2023-02-21T21:20:19.831Z,6.70
2023-02-21T21:22:47.952Z,7.10
2023-02-21T21:25:18.164Z,5.80
2023-02-21T21:27:46.716Z,6.60
2023-02-21T21:30:19.718Z,6.00
2023-02-21T21:32:47.579Z,7.90
2023-02-21T21:35:17.163Z,6.30
2023-02-21T21:37:45.454Z,5.90
2023-02-21T21:40:17.013Z,6.80
2023-02-21T21:42:49.436Z,6.50
2023-02-21T21:45:25.245Z,6.50
2023-02-21T21:47:54.985Z,6.90
2023-02-21T21:50:22.998Z,6.90
2023-02-21T21:52:52.559Z,6.90
2023-02-21T21:55:22.133Z,7.20
2023-02-21T21:57:53.577Z,8.40
2023-02-21T22:00:22.981Z,6.40
2023-02-21T22:02:52.106Z,6.90
2023-02-21T22:05:21.199Z,6.70
2023-02-21T22:07:49.305Z,7.10
2023-02-21T22:10:19.152Z,8.90
2023-02-21T22:12:50.082Z,7.40
2023-02-21T22:15:22.521Z,6.30
2023-02-21T22:17:50.960Z,6.50
2023-02-21T22:20:20.161Z,6.70
2023-02-21T22:22:49.120Z,6.70
2023-02-21T22:25:19.172Z,7.20
2023-02-21T22:27:47.613Z,6.10
2023-02-21T22:30:16.951Z,5.70
2023-02-21T22:32:46.025Z,6.60
2023-02-21T22:35:21.255Z,6.60
2023-02-21T22:37:53.170Z,6.60
2023-02-21T22:40:24.459Z,6.70
2023-02-21T22:42:59.940Z,7.60
2023-02-21T22:45:28.870Z,7.30
2023-02-21T22:47:57.885Z,6.10
2023-02-21T22:50:26.156Z,6.20
2023-02-21T22:52:55.989Z,5.80
2023-02-21T22:55:25.225Z,7.30
2023-02-21T22:57:54.319Z,6.50
2023-02-21T23:00:33.079Z,6.00
2023-02-21T23:03:23.768Z,6.40
2023-02-21T23:05:52.601Z,6.80
2023-02-21T23:08:22.813Z,7.20
2023-02-21T23:10:51.631Z,6.50
2023-02-21T23:13:20.993Z,6.20
2023-02-21T23:15:49.279Z,6.90
2023-02-21T23:18:20.671Z,6.50
2023-02-21T23:20:53.536Z,6.40
2023-02-21T23:23:25.968Z,7.30
2023-02-21T23:25:56.483Z,7.30
2023-02-21T23:28:24.885Z,6.40
2023-02-21T23:30:52.697Z,7.20
2023-02-21T23:33:23.128Z,7.80
2023-02-21T23:35:51.476Z,8.40
2023-02-21T23:38:22.665Z,7.80
2023-02-21T23:40:56.191Z,6.80
2023-02-21T23:43:25.462Z,6.80
2023-02-21T23:45:53.514Z,8.80
2023-02-21T23:48:22.628Z,7.10
2023-02-21T23:50:50.769Z,6.80
2023-02-21T23:53:20.872Z,5.80
2023-02-21T23:55:49.197Z,5.70
2023-02-21T23:58:18.689Z,5.20
